createdAt,value
2017-04-09T00:00:36.160Z,1024.86
2017-04-09T00:01:16.657Z,1024.9
2017-04-09T00:01:57.151Z,1024.87
2017-04-09T00:02:37.613Z,1024.87
2017-04-09T00:03:18.116Z,1024.9
2017-04-09T00:03:58.571Z,1024.88
2017-04-09T00:04:39.050Z,1024.89
2017-04-09T00:05:19.488Z,1024.89
2017-04-09T00:05:59.983Z,1024.88
2017-04-09T00:06:40.465Z,1024.92
2017-04-09T00:07:20.982Z,1024.87
2017-04-09T00:08:01.462Z,1024.89
2017-04-09T00:08:41.929Z,1024.86
2017-04-09T00:09:22.403Z,1024.89
2017-04-09T00:10:02.897Z,1024.85
2017-04-09T00:10:43.315Z,1024.85
2017-04-09T00:11:23.828Z,1024.83
2017-04-09T00:12:04.282Z,1024.83
2017-04-09T00:12:44.745Z,1024.8
2017-04-09T00:13:25.221Z,1024.82
2017-04-09T00:14:05.671Z,1024.81
2017-04-09T00:14:46.181Z,1024.84
2017-04-09T00:15:26.600Z,1024.82
2017-04-09T00:16:07.068Z,1024.86
2017-04-09T00:16:47.553Z,1024.82
2017-04-09T00:17:28.048Z,1024.87
2017-04-09T00:18:08.530Z,1024.85
2017-04-09T00:18:48.989Z,1024.82
2017-04-09T00:19:29.476Z,1024.85
2017-04-09T00:20:09.947Z,1024.82
2017-04-09T00:20:50.427Z,1024.82
2017-04-09T00:21:30.902Z,1024.83
2017-04-09T00:22:11.378Z,1024.83
2017-04-09T00:22:51.830Z,1024.81
2017-04-09T00:23:32.328Z,1024.84
2017-04-09T00:24:12.805Z,1024.79
2017-04-09T00:24:53.311Z,1024.83
2017-04-09T00:25:33.879Z,1024.8
2017-04-09T00:26:14.363Z,1024.82
2017-04-09T00:26:54.833Z,1024.81
2017-04-09T00:27:35.324Z,1024.79
2017-04-09T00:28:15.834Z,1024.78
2017-04-09T00:28:56.313Z,1024.78
2017-04-09T00:29:36.760Z,1024.8
2017-04-09T00:30:17.225Z,1024.74
2017-04-09T00:30:57.736Z,1024.74
2017-04-09T00:31:38.219Z,1024.76
2017-04-09T00:32:18.714Z,1024.78
2017-04-09T00:32:59.189Z,1024.74
2017-04-09T00:33:39.674Z,1024.75
2017-04-09T00:34:20.154Z,1024.71
2017-04-09T00:35:00.646Z,1024.75
2017-04-09T00:35:41.132Z,1024.75
2017-04-09T00:36:21.586Z,1024.73
2017-04-09T00:37:02.073Z,1024.75
2017-04-09T00:37:42.534Z,1024.74
2017-04-09T00:38:23.022Z,1024.72
2017-04-09T00:39:03.540Z,1024.69
2017-04-09T00:39:44.012Z,1024.66
2017-04-09T00:40:24.537Z,1024.69
2017-04-09T00:41:04.990Z,1024.66
2017-04-09T00:41:45.485Z,1024.72
2017-04-09T00:42:25.922Z,1024.71
2017-04-09T00:43:06.408Z,1024.69
2017-04-09T00:43:46.895Z,1024.74
2017-04-09T00:44:27.354Z,1024.71
2017-04-09T00:45:07.809Z,1024.7
2017-04-09T00:45:48.307Z,1024.72
2017-04-09T00:46:28.794Z,1024.75
2017-04-09T00:47:09.273Z,1024.69
2017-04-09T00:47:49.765Z,1024.68
2017-04-09T00:48:30.261Z,1024.67
2017-04-09T00:49:10.739Z,1024.65
2017-04-09T00:49:51.193Z,1024.67
2017-04-09T00:50:31.691Z,1024.63
2017-04-09T00:51:12.177Z,1024.64
2017-04-09T00:51:52.643Z,1024.63
2017-04-09T00:52:33.138Z,1024.63
2017-04-09T00:53:13.613Z,1024.57
2017-04-09T00:53:54.210Z,1024.63
2017-04-09T00:54:34.693Z,1024.57
2017-04-09T00:55:16.686Z,1024.6
2017-04-09T00:55:57.209Z,1024.6
2017-04-09T00:56:37.676Z,1024.55
2017-04-09T00:57:18.155Z,1024.57
2017-04-09T00:57:58.637Z,1024.53
2017-04-09T00:58:39.126Z,1024.55
2017-04-09T00:59:19.592Z,1024.53
2017-04-09T01:00:00.062Z,1024.55
2017-04-09T01:00:40.553Z,1024.51
2017-04-09T01:01:21.014Z,1024.53
2017-04-09T01:02:01.492Z,1024.5
2017-04-09T01:02:41.984Z,1024.49
2017-04-09T01:03:22.468Z,1024.5
2017-04-09T01:04:02.959Z,1024.51
2017-04-09T01:04:43.426Z,1024.47
2017-04-09T01:05:23.940Z,1024.43
2017-04-09T01:06:04.398Z,1024.43
2017-04-09T01:06:44.895Z,1024.44
2017-04-09T01:07:25.369Z,1024.44
2017-04-09T01:08:05.838Z,1024.45
2017-04-09T01:08:46.341Z,1024.44
2017-04-09T01:09:26.841Z,1024.44
2017-04-09T01:10:07.303Z,1024.5
2017-04-09T01:10:47.807Z,1024.46
2017-04-09T01:11:28.263Z,1024.44
2017-04-09T01:12:08.731Z,1024.44
2017-04-09T01:12:49.200Z,1024.46
2017-04-09T01:13:29.689Z,1024.42
2017-04-09T01:14:10.167Z,1024.44
2017-04-09T01:14:50.628Z,1024.42
2017-04-09T01:15:31.100Z,1024.43
2017-04-09T01:16:11.635Z,1024.42
2017-04-09T01:16:52.178Z,1024.41
2017-04-09T01:17:32.652Z,1024.43
2017-04-09T01:18:13.136Z,1024.43
2017-04-09T01:18:53.591Z,1024.4
2017-04-09T01:19:34.088Z,1024.41
2017-04-09T01:20:14.540Z,1024.42
2017-04-09T01:20:55.028Z,1024.38
2017-04-09T01:21:35.507Z,1024.45
2017-04-09T01:22:15.942Z,1024.43
2017-04-09T01:22:56.420Z,1024.38
2017-04-09T01:23:36.906Z,1024.4
2017-04-09T01:24:17.394Z,1024.38
2017-04-09T01:24:57.859Z,1024.41
2017-04-09T01:25:38.336Z,1024.42
2017-04-09T01:26:18.810Z,1024.39
2017-04-09T01:26:59.283Z,1024.41
2017-04-09T01:27:39.767Z,1024.44
2017-04-09T01:28:20.252Z,1024.45
2017-04-09T01:29:00.763Z,1024.4
2017-04-09T01:29:41.269Z,1024.43
2017-04-09T01:30:21.746Z,1024.39
2017-04-09T01:31:02.219Z,1024.41
2017-04-09T01:31:42.716Z,1024.38
2017-04-09T01:32:23.190Z,1024.37
2017-04-09T01:33:03.658Z,1024.36
2017-04-09T01:33:44.120Z,1024.42
2017-04-09T01:34:24.605Z,1024.36
2017-04-09T01:35:05.084Z,1024.35
2017-04-09T01:35:45.582Z,1024.39
2017-04-09T01:36:26.039Z,1024.35
2017-04-09T01:37:06.512Z,1024.38
2017-04-09T01:37:46.993Z,1024.39
2017-04-09T01:38:27.482Z,1024.37
2017-04-09T01:39:07.938Z,1024.34
2017-04-09T01:39:48.422Z,1024.35
2017-04-09T01:40:28.909Z,1024.31
2017-04-09T01:41:09.384Z,1024.3
2017-04-09T01:41:49.882Z,1024.36
2017-04-09T01:42:30.354Z,1024.29
2017-04-09T01:43:10.854Z,1024.3
2017-04-09T01:43:51.295Z,1024.34
2017-04-09T01:44:31.791Z,1024.29
2017-04-09T01:45:12.288Z,1024.31
2017-04-09T01:45:52.766Z,1024.31
2017-04-09T01:46:33.245Z,1024.32
2017-04-09T01:47:13.735Z,1024.33
2017-04-09T01:47:54.280Z,1024.31
2017-04-09T01:48:34.753Z,1024.35
2017-04-09T01:49:15.244Z,1024.31
2017-04-09T01:49:55.707Z,1024.31
2017-04-09T01:50:36.184Z,1024.3
2017-04-09T01:51:16.680Z,1024.26
2017-04-09T01:51:57.104Z,1024.31
2017-04-09T01:52:37.588Z,1024.26
2017-04-09T01:53:18.095Z,1024.26
2017-04-09T01:53:58.571Z,1024.27
2017-04-09T01:54:39.026Z,1024.27
2017-04-09T01:55:19.518Z,1024.24
2017-04-09T01:55:59.975Z,1024.27
2017-04-09T01:56:40.455Z,1024.27
2017-04-09T01:57:20.911Z,1024.28
2017-04-09T01:58:01.367Z,1024.24
2017-04-09T01:58:41.886Z,1024.28
2017-04-09T01:59:22.361Z,1024.27
2017-04-09T02:00:02.810Z,1024.3
2017-04-09T02:00:43.264Z,1024.29
2017-04-09T02:01:23.743Z,1024.23
2017-04-09T02:02:04.230Z,1024.25
2017-04-09T02:02:44.697Z,1024.26
2017-04-09T02:03:25.158Z,1024.3
2017-04-09T02:04:05.625Z,1024.28
2017-04-09T02:04:46.084Z,1024.26
2017-04-09T02:05:26.561Z,1024.27
2017-04-09T02:06:07.008Z,1024.26
2017-04-09T02:06:47.490Z,1024.29
2017-04-09T02:07:28.021Z,1024.29
2017-04-09T02:08:08.496Z,1024.24
2017-04-09T02:08:48.952Z,1024.25
2017-04-09T02:09:29.420Z,1024.26
2017-04-09T02:10:09.937Z,1024.25
2017-04-09T02:10:50.355Z,1024.29
2017-04-09T02:11:30.841Z,1024.21
2017-04-09T02:12:11.308Z,1024.18
2017-04-09T02:12:51.811Z,1024.24
2017-04-09T02:13:32.284Z,1024.26
2017-04-09T02:14:12.731Z,1024.23
2017-04-09T02:14:53.204Z,1024.23
2017-04-09T02:15:33.721Z,1024.18
2017-04-09T02:16:14.190Z,1024.2
2017-04-09T02:16:54.666Z,1024.21
2017-04-09T02:17:35.141Z,1024.17
2017-04-09T02:18:15.570Z,1024.17
2017-04-09T02:18:56.052Z,1024.17
2017-04-09T02:19:36.532Z,1024.13
2017-04-09T02:20:17.009Z,1024.16
2017-04-09T02:20:57.484Z,1024.11
2017-04-09T02:21:37.930Z,1024.11
2017-04-09T02:22:18.423Z,1024.14
2017-04-09T02:22:58.881Z,1024.09
2017-04-09T02:23:39.356Z,1024.08
2017-04-09T02:24:19.840Z,1024.09
2017-04-09T02:25:00.294Z,1024.11
2017-04-09T02:25:40.752Z,1024.07
2017-04-09T02:26:21.266Z,1024.12
2017-04-09T02:27:01.708Z,1024.13
2017-04-09T02:27:42.200Z,1024.09
2017-04-09T02:28:22.652Z,1024.05
2017-04-09T02:29:03.107Z,1024.08
2017-04-09T02:29:43.586Z,1024.11
2017-04-09T02:30:24.055Z,1024.06
2017-04-09T02:31:04.519Z,1024.08
2017-04-09T02:31:45.002Z,1024.12
2017-04-09T02:32:25.469Z,1024.1
2017-04-09T02:33:05.952Z,1024.03
2017-04-09T02:33:46.420Z,1024.08
2017-04-09T02:34:26.883Z,1024.07
2017-04-09T02:35:07.330Z,1024.06
2017-04-09T02:35:47.812Z,1024.03
2017-04-09T02:36:28.291Z,1024.07
2017-04-09T02:37:08.744Z,1024.05
2017-04-09T02:37:49.269Z,1024.06
2017-04-09T02:38:29.741Z,1024.05
2017-04-09T02:39:10.223Z,1023.99
2017-04-09T02:39:50.698Z,1024.02
2017-04-09T02:40:31.153Z,1024.05
2017-04-09T02:41:11.623Z,1024.07
2017-04-09T02:41:52.088Z,1023.99
2017-04-09T02:42:32.568Z,1024.01
2017-04-09T02:43:13.027Z,1024.05
2017-04-09T02:43:53.493Z,1024.04
2017-04-09T02:44:33.990Z,1024.03
2017-04-09T02:45:14.464Z,1024.07
2017-04-09T02:45:54.929Z,1024.01
2017-04-09T02:46:35.423Z,1024.02
2017-04-09T02:47:15.883Z,1024.05
2017-04-09T02:47:56.351Z,1024.02
2017-04-09T02:48:36.819Z,1024.01
2017-04-09T02:49:17.304Z,1023.99
2017-04-09T02:49:57.769Z,1023.98
2017-04-09T02:50:38.216Z,1024.01
2017-04-09T02:51:18.881Z,1023.99
2017-04-09T02:51:59.192Z,1024.02
2017-04-09T02:52:39.691Z,1024.01
2017-04-09T02:53:20.137Z,1024
2017-04-09T02:54:00.618Z,1023.98
2017-04-09T02:54:41.097Z,1023.94
2017-04-09T02:55:21.549Z,1023.96
2017-04-09T02:56:02.035Z,1023.98
2017-04-09T02:56:42.496Z,1023.96
2017-04-09T02:57:22.955Z,1023.96
2017-04-09T02:58:03.417Z,1023.97
2017-04-09T02:58:43.899Z,1023.97
2017-04-09T02:59:24.381Z,1023.98
2017-04-09T03:00:04.836Z,1023.98
2017-04-09T03:00:45.294Z,1023.97
2017-04-09T03:01:25.750Z,1024.01
2017-04-09T03:02:06.244Z,1024
2017-04-09T03:02:46.734Z,1024
2017-04-09T03:03:27.208Z,1023.99
2017-04-09T03:04:07.689Z,1023.96
2017-04-09T03:04:48.149Z,1023.93
2017-04-09T03:05:28.636Z,1023.96
2017-04-09T03:06:09.112Z,1023.95
2017-04-09T03:06:49.594Z,1023.93
2017-04-09T03:07:30.064Z,1023.95
2017-04-09T03:08:10.549Z,1024.01
2017-04-09T03:08:51.037Z,1024.01
2017-04-09T03:09:31.573Z,1023.99
2017-04-09T03:10:12.046Z,1023.95
2017-04-09T03:10:52.534Z,1024.01
2017-04-09T03:11:33.021Z,1023.98
2017-04-09T03:12:13.458Z,1024
2017-04-09T03:12:53.925Z,1023.97
2017-04-09T03:13:34.412Z,1024
2017-04-09T03:14:14.901Z,1024
2017-04-09T03:14:55.389Z,1023.97
2017-04-09T03:15:35.872Z,1023.96
2017-04-09T03:16:16.340Z,1023.98
2017-04-09T03:16:56.868Z,1023.97
2017-04-09T03:17:37.340Z,1023.91
2017-04-09T03:18:17.804Z,1023.97
2017-04-09T03:18:58.272Z,1023.95
2017-04-09T03:19:38.745Z,1023.98
2017-04-09T03:20:19.228Z,1023.92
2017-04-09T03:20:59.718Z,1023.95
2017-04-09T03:21:40.197Z,1023.93
2017-04-09T03:22:20.683Z,1023.92
2017-04-09T03:23:01.198Z,1023.89
2017-04-09T03:23:41.656Z,1023.88
2017-04-09T03:24:22.147Z,1023.86
2017-04-09T03:25:02.622Z,1023.86
2017-04-09T03:25:43.084Z,1023.85
2017-04-09T03:26:23.575Z,1023.89
2017-04-09T03:27:04.048Z,1023.86
2017-04-09T03:27:44.564Z,1023.83
2017-04-09T03:28:25.049Z,1023.81
2017-04-09T03:29:05.536Z,1023.82
2017-04-09T03:29:46.016Z,1023.89
2017-04-09T03:30:26.504Z,1023.82
2017-04-09T03:31:07.003Z,1023.81
2017-04-09T03:31:47.453Z,1023.79
2017-04-09T03:32:27.939Z,1023.85
2017-04-09T03:33:08.413Z,1023.85
2017-04-09T03:33:48.923Z,1023.79
2017-04-09T03:34:29.412Z,1023.8
2017-04-09T03:35:09.905Z,1023.79
2017-04-09T03:35:50.445Z,1023.81
2017-04-09T03:36:30.906Z,1023.8
2017-04-09T03:37:11.443Z,1023.82
2017-04-09T03:37:51.929Z,1023.84
2017-04-09T03:38:32.507Z,1023.79
2017-04-09T03:39:12.922Z,1023.81
2017-04-09T03:39:53.401Z,1023.84
2017-04-09T03:40:33.886Z,1023.83
2017-04-09T03:41:14.371Z,1023.81
2017-04-09T03:41:54.835Z,1023.82
2017-04-09T03:42:35.337Z,1023.85
2017-04-09T03:43:15.838Z,1023.87
2017-04-09T03:43:56.309Z,1023.84
2017-04-09T03:44:36.763Z,1023.82
2017-04-09T03:45:17.267Z,1023.79
2017-04-09T03:45:57.736Z,1023.81
2017-04-09T03:46:38.167Z,1023.83
2017-04-09T03:47:18.649Z,1023.8
2017-04-09T03:47:59.127Z,1023.83
2017-04-09T03:48:39.574Z,1023.79
2017-04-09T03:49:20.076Z,1023.81
2017-04-09T03:50:00.576Z,1023.8
2017-04-09T03:50:41.097Z,1023.77
2017-04-09T03:51:21.589Z,1023.79
2017-04-09T03:52:02.067Z,1023.77
2017-04-09T03:52:42.546Z,1023.78
2017-04-09T03:53:23.042Z,1023.8
2017-04-09T03:54:03.489Z,1023.81
2017-04-09T03:54:44.019Z,1023.8
2017-04-09T03:55:24.508Z,1023.76
2017-04-09T03:56:04.973Z,1023.77
2017-04-09T03:56:45.432Z,1023.77
2017-04-09T03:57:25.872Z,1023.76
2017-04-09T03:58:06.389Z,1023.76
2017-04-09T03:58:46.864Z,1023.77
2017-04-09T03:59:27.326Z,1023.78
2017-04-09T04:00:07.795Z,1023.8
2017-04-09T04:00:48.294Z,1023.78
2017-04-09T04:01:28.737Z,1023.81
2017-04-09T04:02:09.218Z,1023.82
2017-04-09T04:02:51.294Z,1023.78
2017-04-09T04:03:31.779Z,1023.78
2017-04-09T04:04:12.276Z,1023.72
2017-04-09T04:04:52.726Z,1023.76
2017-04-09T04:05:33.230Z,1023.81
2017-04-09T04:06:13.686Z,1023.77
2017-04-09T04:06:54.185Z,1023.78
2017-04-09T04:07:34.650Z,1023.75
2017-04-09T04:08:15.115Z,1023.75
2017-04-09T04:08:55.572Z,1023.78
2017-04-09T04:09:36.081Z,1023.77
2017-04-09T04:10:16.514Z,1023.74
2017-04-09T04:10:57.012Z,1023.74
2017-04-09T04:11:37.486Z,1023.74
2017-04-09T04:12:17.956Z,1023.77
2017-04-09T04:12:58.409Z,1023.76
2017-04-09T04:13:38.888Z,1023.78
2017-04-09T04:14:19.364Z,1023.75
2017-04-09T04:14:59.868Z,1023.72
2017-04-09T04:15:40.325Z,1023.78
2017-04-09T04:16:20.797Z,1023.75
2017-04-09T04:17:01.250Z,1023.75
2017-04-09T04:17:41.720Z,1023.73
2017-04-09T04:18:22.193Z,1023.74
2017-04-09T04:19:02.664Z,1023.76
2017-04-09T04:19:43.125Z,1023.75
2017-04-09T04:20:23.638Z,1023.74
2017-04-09T04:21:04.086Z,1023.71
2017-04-09T04:21:44.583Z,1023.76
2017-04-09T04:22:25.040Z,1023.75
2017-04-09T04:23:05.517Z,1023.76
2017-04-09T04:23:45.983Z,1023.75
2017-04-09T04:24:26.459Z,1023.76
2017-04-09T04:25:06.940Z,1023.76
2017-04-09T04:25:47.436Z,1023.78
2017-04-09T04:26:27.953Z,1023.78
2017-04-09T04:27:08.401Z,1023.71
2017-04-09T04:27:48.902Z,1023.79
2017-04-09T04:28:29.325Z,1023.77
2017-04-09T04:29:09.823Z,1023.77
2017-04-09T04:29:50.331Z,1023.74
2017-04-09T04:30:30.780Z,1023.76
2017-04-09T04:31:11.280Z,1023.78
2017-04-09T04:31:51.739Z,1023.78
2017-04-09T04:32:32.307Z,1023.83
2017-04-09T04:33:12.816Z,1023.82
2017-04-09T04:33:53.249Z,1023.8
2017-04-09T04:34:33.740Z,1023.8
2017-04-09T04:35:14.202Z,1023.8
2017-04-09T04:35:54.678Z,1023.78
2017-04-09T04:36:35.125Z,1023.82
2017-04-09T04:37:15.618Z,1023.83
2017-04-09T04:37:56.143Z,1023.83
2017-04-09T04:38:36.610Z,1023.79
2017-04-09T04:39:17.101Z,1023.79
2017-04-09T04:39:57.584Z,1023.81
2017-04-09T04:40:38.032Z,1023.86
2017-04-09T04:41:18.465Z,1023.85
2017-04-09T04:41:58.947Z,1023.85
2017-04-09T04:42:39.540Z,1023.84
2017-04-09T04:43:20.040Z,1023.87
2017-04-09T04:44:00.537Z,1023.87
2017-04-09T04:44:41.039Z,1023.88
2017-04-09T04:45:21.503Z,1023.91
2017-04-09T04:46:01.958Z,1023.86
2017-04-09T04:46:42.454Z,1023.87
2017-04-09T04:47:22.932Z,1023.88
2017-04-09T04:48:03.399Z,1023.9
2017-04-09T04:48:43.872Z,1023.91
2017-04-09T04:49:24.315Z,1023.94
2017-04-09T04:50:04.778Z,1023.93
2017-04-09T04:50:45.246Z,1023.93
2017-04-09T04:51:25.706Z,1023.93
2017-04-09T04:52:06.197Z,1023.95
2017-04-09T04:52:46.652Z,1023.91
2017-04-09T04:53:27.214Z,1023.91
2017-04-09T04:54:07.694Z,1023.88
2017-04-09T04:54:48.160Z,1023.88
2017-04-09T04:55:28.627Z,1023.91
2017-04-09T04:56:09.171Z,1023.9
2017-04-09T04:56:49.646Z,1023.9
2017-04-09T04:57:30.111Z,1023.9
2017-04-09T04:58:10.577Z,1023.91
2017-04-09T04:58:51.046Z,1023.86
2017-04-09T04:59:31.518Z,1023.87
2017-04-09T05:00:12.015Z,1023.88
2017-04-09T05:00:52.486Z,1023.88
2017-04-09T05:01:32.950Z,1023.95
2017-04-09T05:02:13.432Z,1023.9
2017-04-09T05:02:54.004Z,1023.92
2017-04-09T05:03:34.483Z,1023.93
2017-04-09T05:04:15.030Z,1023.92
2017-04-09T05:04:55.448Z,1023.91
2017-04-09T05:05:35.894Z,1023.94
2017-04-09T05:06:16.404Z,1023.93
2017-04-09T05:06:56.899Z,1023.95
2017-04-09T05:07:37.306Z,1023.95
2017-04-09T05:08:17.797Z,1023.92
2017-04-09T05:08:58.280Z,1023.9
2017-04-09T05:09:38.761Z,1023.97
2017-04-09T05:10:19.208Z,1023.96
2017-04-09T05:10:59.725Z,1023.95
2017-04-09T05:11:40.220Z,1024.01
2017-04-09T05:12:20.657Z,1024.01
2017-04-09T05:13:01.130Z,1023.98
2017-04-09T05:13:41.593Z,1023.97
2017-04-09T05:14:22.170Z,1024.02
2017-04-09T05:15:02.647Z,1024.01
2017-04-09T05:15:43.129Z,1024.03
2017-04-09T05:16:23.592Z,1024.05
2017-04-09T05:17:04.094Z,1024.02
2017-04-09T05:17:44.602Z,1023.96
2017-04-09T05:18:25.079Z,1024
2017-04-09T05:19:05.526Z,1024.03
2017-04-09T05:19:46.057Z,1024
2017-04-09T05:20:26.538Z,1024.05
2017-04-09T05:21:07.033Z,1024.03
2017-04-09T05:21:47.498Z,1024.06
2017-04-09T05:22:27.994Z,1024.05
2017-04-09T05:23:08.461Z,1024.05
2017-04-09T05:23:48.897Z,1024.07
2017-04-09T05:24:29.360Z,1024.03
2017-04-09T05:25:09.851Z,1024.06
2017-04-09T05:25:50.320Z,1024.05
2017-04-09T05:26:30.819Z,1024.09
2017-04-09T05:27:11.311Z,1024.09
2017-04-09T05:27:51.774Z,1024.05
2017-04-09T05:28:32.258Z,1024.1
2017-04-09T05:29:12.742Z,1024.04
2017-04-09T05:29:53.223Z,1024.05
2017-04-09T05:30:33.694Z,1024.08
2017-04-09T05:31:14.194Z,1024.09
2017-04-09T05:31:54.674Z,1024.08
2017-04-09T05:32:35.155Z,1024.13
2017-04-09T05:33:15.634Z,1024.11
2017-04-09T05:33:56.099Z,1024.08
2017-04-09T05:34:36.595Z,1024.1
2017-04-09T05:35:17.035Z,1024.12
2017-04-09T05:35:57.502Z,1024.13
2017-04-09T05:36:38.017Z,1024.11
2017-04-09T05:37:18.465Z,1024.15
2017-04-09T05:37:58.952Z,1024.1
2017-04-09T05:38:39.429Z,1024.14
2017-04-09T05:39:19.904Z,1024.16
2017-04-09T05:40:00.389Z,1024.15
2017-04-09T05:40:40.864Z,1024.1
2017-04-09T05:41:21.342Z,1024.11
2017-04-09T05:42:01.834Z,1024.13
2017-04-09T05:42:42.320Z,1024.12
2017-04-09T05:43:22.789Z,1024.15
2017-04-09T05:44:03.299Z,1024.15
2017-04-09T05:44:43.779Z,1024.18
2017-04-09T05:45:24.290Z,1024.13
2017-04-09T05:46:04.774Z,1024.13
2017-04-09T05:46:46.080Z,1024.12
2017-04-09T05:47:26.551Z,1024.14
2017-04-09T05:48:07.024Z,1024.15
2017-04-09T05:48:47.497Z,1024.13
2017-04-09T05:49:27.966Z,1024.13
2017-04-09T05:50:08.484Z,1024.12
2017-04-09T05:50:48.963Z,1024.15
2017-04-09T05:51:29.429Z,1024.15
2017-04-09T05:52:09.951Z,1024.14
2017-04-09T05:52:50.390Z,1024.15
2017-04-09T05:53:30.881Z,1024.11
2017-04-09T05:54:11.380Z,1024.17
2017-04-09T05:54:51.819Z,1024.13
2017-04-09T05:55:32.283Z,1024.15
2017-04-09T05:56:12.771Z,1024.25
2017-04-09T05:56:53.223Z,1024.17
2017-04-09T05:57:33.710Z,1024.17
2017-04-09T05:58:14.203Z,1024.13
2017-04-09T05:58:54.674Z,1024.17
2017-04-09T05:59:35.145Z,1024.18
2017-04-09T06:00:15.647Z,1024.18
2017-04-09T06:00:56.144Z,1024.2
2017-04-09T06:01:36.551Z,1024.21
2017-04-09T06:02:17.014Z,1024.23
2017-04-09T06:02:57.499Z,1024.2
2017-04-09T06:03:38.014Z,1024.21
2017-04-09T06:04:18.480Z,1024.21
2017-04-09T06:04:58.991Z,1024.21
2017-04-09T06:05:39.447Z,1024.2
2017-04-09T06:06:19.944Z,1024.2
2017-04-09T06:07:00.414Z,1024.21
2017-04-09T06:07:40.891Z,1024.24
2017-04-09T06:08:21.403Z,1024.26
2017-04-09T06:09:01.858Z,1024.27
2017-04-09T06:09:42.369Z,1024.27
2017-04-09T06:10:22.855Z,1024.26
2017-04-09T06:11:03.317Z,1024.31
2017-04-09T06:11:43.855Z,1024.26
2017-04-09T06:12:24.306Z,1024.28
2017-04-09T06:13:04.812Z,1024.25
2017-04-09T06:13:45.305Z,1024.29
2017-04-09T06:14:25.787Z,1024.3
2017-04-09T06:15:06.282Z,1024.27
2017-04-09T06:15:46.751Z,1024.3
2017-04-09T06:16:27.242Z,1024.3
2017-04-09T06:17:07.702Z,1024.31
2017-04-09T06:17:48.200Z,1024.34
2017-04-09T06:18:28.655Z,1024.28
2017-04-09T06:19:09.151Z,1024.28
2017-04-09T06:19:49.626Z,1024.27
2017-04-09T06:20:30.081Z,1024.31
2017-04-09T06:21:10.552Z,1024.28
2017-04-09T06:21:51.013Z,1024.31
2017-04-09T06:22:31.527Z,1024.31
2017-04-09T06:23:12.026Z,1024.32
2017-04-09T06:23:52.451Z,1024.35
2017-04-09T06:24:32.919Z,1024.36
2017-04-09T06:25:13.355Z,1024.32
2017-04-09T06:25:53.833Z,1024.41
2017-04-09T06:26:34.314Z,1024.39
2017-04-09T06:27:14.773Z,1024.34
2017-04-09T06:27:55.262Z,1024.41
2017-04-09T06:28:35.733Z,1024.37
2017-04-09T06:29:16.216Z,1024.38
2017-04-09T06:29:56.684Z,1024.35
2017-04-09T06:30:37.244Z,1024.38
2017-04-09T06:31:17.729Z,1024.42
2017-04-09T06:31:58.189Z,1024.4
2017-04-09T06:32:38.663Z,1024.38
2017-04-09T06:33:19.247Z,1024.41
2017-04-09T06:33:59.756Z,1024.4
2017-04-09T06:34:40.226Z,1024.4
2017-04-09T06:35:20.729Z,1024.38
2017-04-09T06:36:01.195Z,1024.4
2017-04-09T06:36:41.664Z,1024.44
2017-04-09T06:37:22.146Z,1024.36
2017-04-09T06:38:02.585Z,1024.41
2017-04-09T06:38:43.050Z,1024.43
2017-04-09T06:39:23.549Z,1024.43
2017-04-09T06:40:04.028Z,1024.42
2017-04-09T06:40:44.530Z,1024.44
2017-04-09T06:41:25.037Z,1024.42
2017-04-09T06:42:05.504Z,1024.42
2017-04-09T06:42:45.992Z,1024.39
2017-04-09T06:43:26.460Z,1024.43
2017-04-09T06:44:06.944Z,1024.45
2017-04-09T06:44:47.407Z,1024.44
2017-04-09T06:45:27.881Z,1024.46
2017-04-09T06:46:08.385Z,1024.48
2017-04-09T06:46:48.844Z,1024.51
2017-04-09T06:47:29.379Z,1024.45
2017-04-09T06:48:09.848Z,1024.49
2017-04-09T06:48:50.311Z,1024.5
2017-04-09T06:49:30.747Z,1024.51
2017-04-09T06:50:11.209Z,1024.53
2017-04-09T06:50:51.684Z,1024.55
2017-04-09T06:51:32.197Z,1024.52
2017-04-09T06:52:12.693Z,1024.57
2017-04-09T06:52:53.189Z,1024.52
2017-04-09T06:53:33.641Z,1024.5
2017-04-09T06:54:14.098Z,1024.5
2017-04-09T06:54:54.570Z,1024.52
2017-04-09T06:55:35.051Z,1024.49
2017-04-09T06:56:15.519Z,1024.52
2017-04-09T06:56:55.981Z,1024.5
2017-04-09T06:57:36.497Z,1024.48
2017-04-09T06:58:16.973Z,1024.48
2017-04-09T06:58:57.466Z,1024.52
2017-04-09T06:59:37.944Z,1024.52
2017-04-09T07:00:18.438Z,1024.52
2017-04-09T07:00:58.924Z,1024.51
2017-04-09T07:01:39.414Z,1024.5
2017-04-09T07:02:19.919Z,1024.48
2017-04-09T07:03:00.372Z,1024.52
2017-04-09T07:03:40.830Z,1024.52
2017-04-09T07:04:21.301Z,1024.5
2017-04-09T07:05:01.749Z,1024.5
2017-04-09T07:05:42.237Z,1024.49
2017-04-09T07:06:22.689Z,1024.52
2017-04-09T07:07:03.197Z,1024.57
2017-04-09T07:07:43.678Z,1024.49
2017-04-09T07:08:24.154Z,1024.55
2017-04-09T07:09:04.629Z,1024.52
2017-04-09T07:09:45.083Z,1024.51
2017-04-09T07:10:25.558Z,1024.54
2017-04-09T07:11:06.045Z,1024.51
2017-04-09T07:11:46.509Z,1024.56
2017-04-09T07:12:26.970Z,1024.56
2017-04-09T07:13:07.442Z,1024.57
2017-04-09T07:13:47.950Z,1024.53
2017-04-09T07:14:28.436Z,1024.56
2017-04-09T07:15:08.908Z,1024.57
2017-04-09T07:15:49.380Z,1024.56
2017-04-09T07:16:29.843Z,1024.55
2017-04-09T07:17:10.318Z,1024.6
2017-04-09T07:17:50.818Z,1024.61
2017-04-09T07:18:31.301Z,1024.6
2017-04-09T07:19:11.754Z,1024.59
2017-04-09T07:19:52.294Z,1024.59
2017-04-09T07:20:32.809Z,1024.59
2017-04-09T07:21:13.251Z,1024.61
2017-04-09T07:21:53.721Z,1024.54
2017-04-09T07:22:34.183Z,1024.55
2017-04-09T07:23:14.687Z,1024.56
2017-04-09T07:23:55.159Z,1024.55
2017-04-09T07:24:35.623Z,1024.56
2017-04-09T07:25:16.146Z,1024.53
2017-04-09T07:25:56.636Z,1024.6
2017-04-09T07:26:37.107Z,1024.58
2017-04-09T07:27:17.564Z,1024.59
2017-04-09T07:27:58.043Z,1024.58
2017-04-09T07:28:38.527Z,1024.54
2017-04-09T07:29:18.979Z,1024.59
2017-04-09T07:29:59.482Z,1024.6
2017-04-09T07:30:39.978Z,1024.56
2017-04-09T07:31:20.434Z,1024.56
2017-04-09T07:32:00.930Z,1024.58
2017-04-09T07:32:41.404Z,1024.58
2017-04-09T07:33:21.907Z,1024.59
2017-04-09T07:34:02.378Z,1024.6
2017-04-09T07:34:42.885Z,1024.62
2017-04-09T07:35:23.356Z,1024.58
2017-04-09T07:36:03.790Z,1024.58
2017-04-09T07:36:44.303Z,1024.57
2017-04-09T07:37:24.773Z,1024.54
2017-04-09T07:38:05.242Z,1024.56
2017-04-09T07:38:45.787Z,1024.57
2017-04-09T07:39:26.300Z,1024.55
2017-04-09T07:40:06.763Z,1024.55
2017-04-09T07:40:47.258Z,1024.56
2017-04-09T07:41:27.767Z,1024.56
2017-04-09T07:42:08.225Z,1024.61
2017-04-09T07:42:48.715Z,1024.56
2017-04-09T07:43:29.182Z,1024.57
2017-04-09T07:44:09.665Z,1024.56
2017-04-09T07:44:50.147Z,1024.57
2017-04-09T07:45:30.631Z,1024.6
2017-04-09T07:46:11.147Z,1024.59
2017-04-09T07:46:51.576Z,1024.56
2017-04-09T07:47:32.062Z,1024.55
2017-04-09T07:48:12.539Z,1024.55
2017-04-09T07:48:53.022Z,1024.6
2017-04-09T07:49:33.469Z,1024.52
2017-04-09T07:50:13.973Z,1024.55
2017-04-09T07:50:54.417Z,1024.55
2017-04-09T07:51:34.894Z,1024.54
2017-04-09T07:52:15.399Z,1024.53
2017-04-09T07:52:55.841Z,1024.56
2017-04-09T07:53:36.334Z,1024.55
2017-04-09T07:54:16.830Z,1024.56
2017-04-09T07:54:57.310Z,1024.5
2017-04-09T07:55:37.828Z,1024.54
2017-04-09T07:56:18.250Z,1024.53
2017-04-09T07:56:58.723Z,1024.52
2017-04-09T07:57:39.232Z,1024.59
2017-04-09T07:58:19.686Z,1024.53
2017-04-09T07:59:00.196Z,1024.56
2017-04-09T07:59:40.671Z,1024.53
2017-04-09T08:00:21.143Z,1024.57
2017-04-09T08:01:01.606Z,1024.58
2017-04-09T08:01:42.092Z,1024.65
2017-04-09T08:02:22.572Z,1024.62
2017-04-09T08:03:03.026Z,1024.65
2017-04-09T08:03:43.500Z,1024.6
2017-04-09T08:04:23.986Z,1024.61
2017-04-09T08:05:04.451Z,1024.67
2017-04-09T08:05:44.930Z,1024.66
2017-04-09T08:06:25.397Z,1024.73
2017-04-09T08:07:05.906Z,1024.63
2017-04-09T08:07:46.349Z,1024.68
2017-04-09T08:08:26.803Z,1024.69
2017-04-09T08:09:07.382Z,1024.7
2017-04-09T08:09:47.889Z,1024.76
2017-04-09T08:10:28.362Z,1024.7
2017-04-09T08:11:08.861Z,1024.72
2017-04-09T08:11:49.354Z,1024.7